Nearby METAR Reports

 

KADS - Dallas/Addison, Texas, USA
Distance from station: SSE 13mi, 21km
Updated: Sat, 02-16-2019 2:35am CST
Overcast
Overcast
 Wind from NNW
Wind: NNW 9 mph , 15 km/h
Temperature: 36°F , 2°C
Wind Chill: 29°F , -2°C
Dew Point: 30°F , -1°C
Humidity: 81%
Barometer: 29.95 inHg , 1014.2 hPa
Clouds: Overcast
Visibility: 10 miles , 16 km
Cloud details: Overcast 1300 ft
2019/02/16 08:35 KADS 160835Z AUTO 34008KT 10SM OVC013 02/M01 A2995 RMK AO2 T00151014
KTKI - Mckinney, Texas, USA
Distance from station: E 17mi, 27km
Updated: Sat, 02-16-2019 2:53am CST
Overcast
Overcast
 Wind from N
Wind: N 14 mph , 22 km/h
Temperature: 34°F , 1°C
Wind Chill: 25°F , -4°C
Dew Point: 30°F , -1°C
Humidity: 87%
Barometer: 29.93 inHg , 1013.5 hPa
Clouds: Overcast
Visibility: 10 miles , 16 km
Cloud details: Overcast 1100 ft
2019/02/16 08:53 KTKI 160853Z AUTO 01012KT 10SM OVC011 01/M01 A2993 RMK AO2 SLP145 T00111011 58006
 
KDFW - Dallas/Ft Worth, Texas, USA
Distance from station: SSW 19mi, 30km
Updated: Sat, 02-16-2019 2:53am CST
Overcast
Overcast
 Wind from N
Wind: N 14 mph , 22 km/h
Temperature: 34°F , 1°C
Wind Chill: 25°F , -4°C
Dew Point: 28°F , -2°C
Humidity: 81%
Barometer: 29.90 inHg , 1012.5 hPa
Clouds: Overcast
Visibility: 10 miles , 16 km
Cloud details: Overcast 1500 ft
2019/02/16 08:53 KDFW 160853Z 36012KT 10SM OVC015 01/M02 A2990 RMK AO2 SLP123 T00111022 58007
KDTO - Denton, Texas, USA
Distance from station: W 19mi, 31km
Updated: Sat, 02-16-2019 2:53am CST
Overcast
Overcast
 Wind from N
Wind: N 13 mph , 20 km/h
Temperature: 34°F , 1°C
Wind Chill: 25°F , -4°C
Dew Point: 27°F , -3°C
Humidity: 75%
Barometer: 29.93 inHg , 1013.5 hPa
Clouds: Overcast
Visibility: 10 miles , 16 km
Cloud details: Overcast 1500 ft
2019/02/16 08:53 KDTO 160853Z AUTO 36011KT 10SM OVC015 01/M03 A2993 RMK AO2 SLP135 T00061033 58009
 
KDAL - Dallas/Love Fld, Texas, USA
Distance from station: S 20mi, 33km
Updated: Sat, 02-16-2019 1:53am CST
Overcast
Overcast
 Wind from N
Wind: N 13 mph , 20 km/h
Temperature: 37°F , 3°C
Wind Chill: 29°F , -2°C
Dew Point: 28°F , -2°C
Humidity: 70%
Barometer: 29.96 inHg , 1014.6 hPa
Clouds: Overcast
Visibility: 10 miles , 16 km
Cloud details: Overcast 1600 ft
2019/02/16 07:53 KDAL 160753Z 35011KT 10SM OVC016 03/M02 A2996 RMK AO2 SLP144 T00281017 $